sensor_id;sensor_type;location;lat;lon;timestamp;P1;durP1;ratioP1;P2;durP2;ratioP2
30010;SDS011;16851;53.564;8.112;2022-12-18T00:00:03;143.60;;;47.63;;
30010;SDS011;16851;53.564;8.112;2022-12-18T00:05:14;147.57;;;48.23;;
30010;SDS011;16851;53.564;8.112;2022-12-18T00:10:18;152.53;;;47.83;;
30010;SDS011;16851;53.564;8.112;2022-12-18T00:15:20;145.57;;;45.93;;
30010;SDS011;16851;53.564;8.112;2022-12-18T00:20:24;125.93;;;39.43;;
30010;SDS011;16851;53.564;8.112;2022-12-18T00:25:27;149.03;;;50.67;;
30010;SDS011;16851;53.564;8.112;2022-12-18T00:30:29;150.37;;;47.57;;
30010;SDS011;16851;53.564;8.112;2022-12-18T00:35:35;159.47;;;50.47;;
30010;SDS011;16851;53.564;8.112;2022-12-18T00:40:36;154.57;;;48.80;;
30010;SDS011;16851;53.564;8.112;2022-12-18T00:45:40;144.40;;;44.67;;
30010;SDS011;16851;53.564;8.112;2022-12-18T00:50:50;154.07;;;49.10;;
30010;SDS011;16851;53.564;8.112;2022-12-18T00:55:54;165.30;;;51.07;;
30010;SDS011;16851;53.564;8.112;2022-12-18T01:00:56;170.60;;;49.83;;
30010;SDS011;16851;53.564;8.112;2022-12-18T01:05:59;169.13;;;50.73;;
30010;SDS011;16851;53.564;8.112;2022-12-18T01:11:19;165.70;;;48.30;;
30010;SDS011;16851;53.564;8.112;2022-12-18T01:16:24;165.70;;;50.17;;
30010;SDS011;16851;53.564;8.112;2022-12-18T01:21:26;147.23;;;46.03;;
30010;SDS011;16851;53.564;8.112;2022-12-18T01:26:30;172.73;;;52.03;;
30010;SDS011;16851;53.564;8.112;2022-12-18T01:31:32;151.67;;;46.10;;
30010;SDS011;16851;53.564;8.112;2022-12-18T01:36:37;168.03;;;52.13;;
30010;SDS011;16851;53.564;8.112;2022-12-18T01:41:42;163.57;;;48.60;;
30010;SDS011;16851;53.564;8.112;2022-12-18T01:47:05;161.97;;;49.80;;
30010;SDS011;16851;53.564;8.112;2022-12-18T01:52:13;158.27;;;46.47;;
30010;SDS011;16851;53.564;8.112;2022-12-18T01:57:14;184.63;;;51.73;;
30010;SDS011;16851;53.564;8.112;2022-12-18T02:02:21;185.47;;;53.77;;
30010;SDS011;16851;53.564;8.112;2022-12-18T02:12:54;181.77;;;53.97;;
30010;SDS011;16851;53.564;8.112;2022-12-18T02:17:58;186.83;;;54.90;;
30010;SDS011;16851;53.564;8.112;2022-12-18T02:23:17;194.07;;;55.13;;
30010;SDS011;16851;53.564;8.112;2022-12-18T02:28:28;186.10;;;53.20;;
30010;SDS011;16851;53.564;8.112;2022-12-18T02:33:38;188.20;;;54.30;;
30010;SDS011;16851;53.564;8.112;2022-12-18T02:38:43;200.47;;;54.03;;
30010;SDS011;16851;53.564;8.112;2022-12-18T02:43:53;182.77;;;55.63;;
30010;SDS011;16851;53.564;8.112;2022-12-18T03:05:10;178.20;;;55.43;;
30010;SDS011;16851;53.564;8.112;2022-12-18T03:10:16;178.00;;;52.77;;
30010;SDS011;16851;53.564;8.112;2022-12-18T03:15:24;163.17;;;53.77;;
30010;SDS011;16851;53.564;8.112;2022-12-18T03:20:40;158.43;;;50.60;;
30010;SDS011;16851;53.564;8.112;2022-12-18T03:25:48;176.90;;;54.67;;
30010;SDS011;16851;53.564;8.112;2022-12-18T03:30:57;169.93;;;54.87;;
30010;SDS011;16851;53.564;8.112;2022-12-18T03:36:03;174.23;;;55.20;;
30010;SDS011;16851;53.564;8.112;2022-12-18T03:41:19;141.90;;;48.80;;
30010;SDS011;16851;53.564;8.112;2022-12-18T03:52:14;137.60;;;47.93;;
30010;SDS011;16851;53.564;8.112;2022-12-18T03:57:21;141.10;;;47.10;;
30010;SDS011;16851;53.564;8.112;2022-12-18T04:02:28;111.17;;;39.07;;
30010;SDS011;16851;53.564;8.112;2022-12-18T04:07:34;136.10;;;48.73;;
30010;SDS011;16851;53.564;8.112;2022-12-18T04:12:39;128.50;;;48.63;;
30010;SDS011;16851;53.564;8.112;2022-12-18T04:17:49;133.07;;;44.67;;
30010;SDS011;16851;53.564;8.112;2022-12-18T04:22:55;119.57;;;42.40;;
30010;SDS011;16851;53.564;8.112;2022-12-18T04:28:02;115.30;;;42.17;;
30010;SDS011;16851;53.564;8.112;2022-12-18T04:33:09;110.10;;;41.07;;
30010;SDS011;16851;53.564;8.112;2022-12-18T04:38:17;102.53;;;39.97;;
30010;SDS011;16851;53.564;8.112;2022-12-18T04:43:21;93.40;;;38.23;;
30010;SDS011;16851;53.564;8.112;2022-12-18T04:48:25;83.90;;;36.20;;
30010;SDS011;16851;53.564;8.112;2022-12-18T04:53:32;87.97;;;35.90;;
30010;SDS011;16851;53.564;8.112;2022-12-18T04:58:38;83.27;;;34.07;;
30010;SDS011;16851;53.564;8.112;2022-12-18T05:03:43;83.40;;;35.47;;
30010;SDS011;16851;53.564;8.112;2022-12-18T05:08:47;82.53;;;34.40;;
30010;SDS011;16851;53.564;8.112;2022-12-18T05:13:49;78.03;;;35.43;;
30010;SDS011;16851;53.564;8.112;2022-12-18T05:19:02;79.13;;;33.57;;
30010;SDS011;16851;53.564;8.112;2022-12-18T05:24:04;77.53;;;33.53;;
30010;SDS011;16851;53.564;8.112;2022-12-18T05:29:07;52.03;;;25.53;;
30010;SDS011;16851;53.564;8.112;2022-12-18T05:34:09;74.53;;;32.30;;
30010;SDS011;16851;53.564;8.112;2022-12-18T05:39:11;69.10;;;32.07;;
30010;SDS011;16851;53.564;8.112;2022-12-18T05:44:18;68.03;;;31.33;;
30010;SDS011;16851;53.564;8.112;2022-12-18T05:49:20;65.60;;;30.10;;
30010;SDS011;16851;53.564;8.112;2022-12-18T05:54:24;59.07;;;28.63;;
30010;SDS011;16851;53.564;8.112;2022-12-18T05:59:31;61.27;;;30.27;;
30010;SDS011;16851;53.564;8.112;2022-12-18T06:04:35;54.67;;;26.80;;
30010;SDS011;16851;53.564;8.112;2022-12-18T06:09:42;55.13;;;27.83;;
30010;SDS011;16851;53.564;8.112;2022-12-18T06:14:44;56.93;;;27.60;;
30010;SDS011;16851;53.564;8.112;2022-12-18T06:19:46;55.60;;;26.20;;
30010;SDS011;16851;53.564;8.112;2022-12-18T06:24:48;54.30;;;26.70;;
30010;SDS011;16851;53.564;8.112;2022-12-18T06:29:50;51.07;;;26.33;;
30010;SDS011;16851;53.564;8.112;2022-12-18T06:34:54;52.50;;;25.30;;
30010;SDS011;16851;53.564;8.112;2022-12-18T06:40:01;52.77;;;26.23;;
30010;SDS011;16851;53.564;8.112;2022-12-18T06:45:04;48.50;;;23.90;;
30010;SDS011;16851;53.564;8.112;2022-12-18T06:50:09;49.40;;;23.70;;
30010;SDS011;16851;53.564;8.112;2022-12-18T06:55:13;47.47;;;22.80;;
30010;SDS011;16851;53.564;8.112;2022-12-18T07:00:17;48.77;;;24.07;;
30010;SDS011;16851;53.564;8.112;2022-12-18T07:05:20;44.37;;;21.97;;
30010;SDS011;16851;53.564;8.112;2022-12-18T07:10:24;40.53;;;20.50;;
30010;SDS011;16851;53.564;8.112;2022-12-18T07:15:27;48.50;;;22.90;;
30010;SDS011;16851;53.564;8.112;2022-12-18T07:20:34;44.67;;;21.70;;
30010;SDS011;16851;53.564;8.112;2022-12-18T07:25:38;39.70;;;21.87;;
30010;SDS011;16851;53.564;8.112;2022-12-18T07:30:42;37.93;;;20.07;;
30010;SDS011;16851;53.564;8.112;2022-12-18T07:35:46;38.23;;;20.70;;
30010;SDS011;16851;53.564;8.112;2022-12-18T07:40:48;38.33;;;21.10;;
30010;SDS011;16851;53.564;8.112;2022-12-18T07:45:52;37.43;;;20.30;;
30010;SDS011;16851;53.564;8.112;2022-12-18T07:50:58;41.13;;;21.27;;
30010;SDS011;16851;53.564;8.112;2022-12-18T07:56:04;40.60;;;20.37;;
30010;SDS011;16851;53.564;8.112;2022-12-18T08:01:29;38.90;;;19.97;;
30010;SDS011;16851;53.564;8.112;2022-12-18T08:06:31;36.23;;;19.33;;
30010;SDS011;16851;53.564;8.112;2022-12-18T08:11:35;35.20;;;18.60;;
30010;SDS011;16851;53.564;8.112;2022-12-18T08:16:39;39.07;;;20.33;;
30010;SDS011;16851;53.564;8.112;2022-12-18T08:21:41;38.10;;;21.00;;
30010;SDS011;16851;53.564;8.112;2022-12-18T08:26:43;38.00;;;23.17;;
30010;SDS011;16851;53.564;8.112;2022-12-18T08:32:05;38.33;;;24.67;;
30010;SDS011;16851;53.564;8.112;2022-12-18T08:37:07;32.30;;;17.93;;
30010;SDS011;16851;53.564;8.112;2022-12-18T08:42:09;35.70;;;21.73;;
30010;SDS011;16851;53.564;8.112;2022-12-18T08:47:35;63.67;;;32.87;;
30010;SDS011;16851;53.564;8.112;2022-12-18T08:52:39;37.07;;;19.63;;
30010;SDS011;16851;53.564;8.112;2022-12-18T08:57:41;27.13;;;16.73;;
30010;SDS011;16851;53.564;8.112;2022-12-18T09:02:42;23.57;;;14.77;;
30010;SDS011;16851;53.564;8.112;2022-12-18T09:07:47;26.77;;;17.40;;
30010;SDS011;16851;53.564;8.112;2022-12-18T09:12:49;22.53;;;13.80;;
30010;SDS011;16851;53.564;8.112;2022-12-18T09:17:53;31.50;;;18.87;;
30010;SDS011;16851;53.564;8.112;2022-12-18T09:22:58;39.90;;;25.67;;
30010;SDS011;16851;53.564;8.112;2022-12-18T09:33:10;25.93;;;14.37;;
30010;SDS011;16851;53.564;8.112;2022-12-18T09:38:19;23.50;;;13.07;;
30010;SDS011;16851;53.564;8.112;2022-12-18T09:43:33;22.73;;;13.27;;
30010;SDS011;16851;53.564;8.112;2022-12-18T09:48:45;19.13;;;12.57;;
30010;SDS011;16851;53.564;8.112;2022-12-18T09:53:53;26.93;;;12.60;;
30010;SDS011;16851;53.564;8.112;2022-12-18T09:59:02;21.23;;;11.80;;
30010;SDS011;16851;53.564;8.112;2022-12-18T10:04:07;20.70;;;11.80;;
30010;SDS011;16851;53.564;8.112;2022-12-18T10:20:01;19.37;;;10.97;;
30010;SDS011;16851;53.564;8.112;2022-12-18T10:30:29;17.00;;;10.40;;
30010;SDS011;16851;53.564;8.112;2022-12-18T10:35:33;23.87;;;13.77;;
30010;SDS011;16851;53.564;8.112;2022-12-18T10:46:01;16.70;;;11.27;;
30010;SDS011;16851;53.564;8.112;2022-12-18T10:51:05;21.03;;;11.93;;
30010;SDS011;16851;53.564;8.112;2022-12-18T10:56:18;16.13;;;10.13;;
30010;SDS011;16851;53.564;8.112;2022-12-18T11:01:21;16.27;;;10.77;;
30010;SDS011;16851;53.564;8.112;2022-12-18T11:06:33;15.13;;;10.00;;
30010;SDS011;16851;53.564;8.112;2022-12-18T11:11:37;20.03;;;11.00;;
30010;SDS011;16851;53.564;8.112;2022-12-18T11:16:43;16.77;;;10.67;;
30010;SDS011;16851;53.564;8.112;2022-12-18T11:27:20;15.53;;;10.50;;
30010;SDS011;16851;53.564;8.112;2022-12-18T11:32:27;17.97;;;9.43;;
30010;SDS011;16851;53.564;8.112;2022-12-18T11:37:33;16.60;;;9.30;;
30010;SDS011;16851;53.564;8.112;2022-12-18T11:42:40;14.03;;;9.20;;
30010;SDS011;16851;53.564;8.112;2022-12-18T11:53:18;16.30;;;9.97;;
30010;SDS011;16851;53.564;8.112;2022-12-18T12:09:53;16.40;;;10.63;;
30010;SDS011;16851;53.564;8.112;2022-12-18T12:15:04;20.97;;;12.03;;
30010;SDS011;16851;53.564;8.112;2022-12-18T12:41:50;22.00;;;12.53;;
30010;SDS011;16851;53.564;8.112;2022-12-18T12:47:25;27.70;;;15.37;;
30010;SDS011;16851;53.564;8.112;2022-12-18T12:52:44;22.20;;;13.27;;
30010;SDS011;16851;53.564;8.112;2022-12-18T12:57:54;32.63;;;19.43;;
30010;SDS011;16851;53.564;8.112;2022-12-18T13:03:24;26.27;;;14.67;;
30010;SDS011;16851;53.564;8.112;2022-12-18T13:08:51;20.67;;;13.17;;
30010;SDS011;16851;53.564;8.112;2022-12-18T13:14:00;23.60;;;12.77;;
30010;SDS011;16851;53.564;8.112;2022-12-18T13:19:18;20.37;;;12.80;;
30010;SDS011;16851;53.564;8.112;2022-12-18T13:24:25;20.73;;;12.33;;
30010;SDS011;16851;53.564;8.112;2022-12-18T13:29:42;22.97;;;12.83;;
30010;SDS011;16851;53.564;8.112;2022-12-18T13:34:49;23.17;;;12.60;;
30010;SDS011;16851;53.564;8.112;2022-12-18T13:46:41;20.60;;;12.33;;
30010;SDS011;16851;53.564;8.112;2022-12-18T13:51:30;19.93;;;11.80;;
30010;SDS011;16851;53.564;8.112;2022-12-18T13:56:42;23.37;;;13.30;;
30010;SDS011;16851;53.564;8.112;2022-12-18T14:01:53;23.63;;;12.97;;
30010;SDS011;16851;53.564;8.112;2022-12-18T14:07:01;14.97;;;11.00;;
30010;SDS011;16851;53.564;8.112;2022-12-18T14:12:11;16.10;;;10.47;;
30010;SDS011;16851;53.564;8.112;2022-12-18T14:22:57;18.90;;;12.23;;
30010;SDS011;16851;53.564;8.112;2022-12-18T14:28:13;16.10;;;10.73;;
30010;SDS011;16851;53.564;8.112;2022-12-18T14:33:20;17.67;;;10.07;;
30010;SDS011;16851;53.564;8.112;2022-12-18T14:38:31;18.43;;;9.97;;
30010;SDS011;16851;53.564;8.112;2022-12-18T14:43:44;18.57;;;10.03;;
30010;SDS011;16851;53.564;8.112;2022-12-18T14:48:53;18.03;;;9.63;;
30010;SDS011;16851;53.564;8.112;2022-12-18T14:54:00;15.50;;;9.27;;
30010;SDS011;16851;53.564;8.112;2022-12-18T14:59:06;13.57;;;8.50;;
30010;SDS011;16851;53.564;8.112;2022-12-18T15:09:36;17.53;;;9.50;;
30010;SDS011;16851;53.564;8.112;2022-12-18T15:14:41;18.00;;;9.70;;
30010;SDS011;16851;53.564;8.112;2022-12-18T15:19:46;14.53;;;9.17;;
30010;SDS011;16851;53.564;8.112;2022-12-18T15:24:54;18.40;;;10.50;;
30010;SDS011;16851;53.564;8.112;2022-12-18T15:30:21;15.07;;;9.50;;
30010;SDS011;16851;53.564;8.112;2022-12-18T15:35:27;14.97;;;9.33;;
30010;SDS011;16851;53.564;8.112;2022-12-18T15:40:29;14.93;;;9.47;;
30010;SDS011;16851;53.564;8.112;2022-12-18T15:45:35;17.20;;;10.97;;
30010;SDS011;16851;53.564;8.112;2022-12-18T15:50:40;18.37;;;9.70;;
30010;SDS011;16851;53.564;8.112;2022-12-18T15:55:42;16.00;;;10.33;;
30010;SDS011;16851;53.564;8.112;2022-12-18T16:01:03;14.07;;;9.37;;
30010;SDS011;16851;53.564;8.112;2022-12-18T16:06:08;19.00;;;10.90;;
30010;SDS011;16851;53.564;8.112;2022-12-18T16:11:21;13.20;;;9.33;;
30010;SDS011;16851;53.564;8.112;2022-12-18T16:16:47;17.03;;;10.53;;
30010;SDS011;16851;53.564;8.112;2022-12-18T16:21:52;17.63;;;10.90;;
30010;SDS011;16851;53.564;8.112;2022-12-18T16:26:57;15.07;;;9.37;;
30010;SDS011;16851;53.564;8.112;2022-12-18T16:32:01;16.50;;;9.33;;
30010;SDS011;16851;53.564;8.112;2022-12-18T16:37:04;13.77;;;7.77;;
30010;SDS011;16851;53.564;8.112;2022-12-18T16:42:14;16.83;;;11.38;;
30010;SDS011;16851;53.564;8.112;2022-12-18T16:47:20;18.47;;;9.90;;
30010;SDS011;16851;53.564;8.112;2022-12-18T16:52:27;15.30;;;9.53;;
30010;SDS011;16851;53.564;8.112;2022-12-18T16:57:33;15.03;;;8.17;;
30010;SDS011;16851;53.564;8.112;2022-12-18T17:02:36;15.97;;;8.90;;
30010;SDS011;16851;53.564;8.112;2022-12-18T17:07:39;15.43;;;9.07;;
30010;SDS011;16851;53.564;8.112;2022-12-18T17:12:43;17.33;;;8.60;;
30010;SDS011;16851;53.564;8.112;2022-12-18T17:17:44;21.93;;;10.43;;
30010;SDS011;16851;53.564;8.112;2022-12-18T17:22:46;16.17;;;10.38;;
30010;SDS011;16851;53.564;8.112;2022-12-18T17:27:51;15.57;;;9.23;;
30010;SDS011;16851;53.564;8.112;2022-12-18T17:32:55;16.10;;;8.53;;
30010;SDS011;16851;53.564;8.112;2022-12-18T17:38:00;15.77;;;9.20;;
30010;SDS011;16851;53.564;8.112;2022-12-18T17:43:04;15.90;;;7.90;;
30010;SDS011;16851;53.564;8.112;2022-12-18T17:48:09;17.17;;;8.73;;
30010;SDS011;16851;53.564;8.112;2022-12-18T17:53:15;11.13;;;6.37;;
30010;SDS011;16851;53.564;8.112;2022-12-18T17:58:20;14.53;;;7.50;;
30010;SDS011;16851;53.564;8.112;2022-12-18T18:03:23;17.40;;;8.77;;
30010;SDS011;16851;53.564;8.112;2022-12-18T18:08:25;13.23;;;7.20;;
30010;SDS011;16851;53.564;8.112;2022-12-18T18:13:27;22.17;;;13.33;;
30010;SDS011;16851;53.564;8.112;2022-12-18T18:18:50;19.80;;;12.57;;
30010;SDS011;16851;53.564;8.112;2022-12-18T18:23:54;13.57;;;8.90;;
30010;SDS011;16851;53.564;8.112;2022-12-18T18:28:56;15.67;;;10.17;;
30010;SDS011;16851;53.564;8.112;2022-12-18T18:34:06;15.90;;;8.77;;
30010;SDS011;16851;53.564;8.112;2022-12-18T18:39:12;15.93;;;9.02;;
30010;SDS011;16851;53.564;8.112;2022-12-18T18:44:17;15.17;;;8.93;;
30010;SDS011;16851;53.564;8.112;2022-12-18T18:49:25;18.47;;;9.00;;
30010;SDS011;16851;53.564;8.112;2022-12-18T18:54:35;21.37;;;12.83;;
30010;SDS011;16851;53.564;8.112;2022-12-18T18:59:59;13.70;;;8.40;;
30010;SDS011;16851;53.564;8.112;2022-12-18T19:05:04;17.63;;;9.73;;
30010;SDS011;16851;53.564;8.112;2022-12-18T19:10:10;16.73;;;9.03;;
30010;SDS011;16851;53.564;8.112;2022-12-18T19:15:12;16.30;;;9.07;;
30010;SDS011;16851;53.564;8.112;2022-12-18T19:20:17;30.87;;;12.77;;
30010;SDS011;16851;53.564;8.112;2022-12-18T19:25:19;14.73;;;9.70;;
30010;SDS011;16851;53.564;8.112;2022-12-18T19:30:22;14.57;;;9.30;;
30010;SDS011;16851;53.564;8.112;2022-12-18T19:35:24;17.30;;;10.13;;
30010;SDS011;16851;53.564;8.112;2022-12-18T19:40:30;16.80;;;9.53;;
30010;SDS011;16851;53.564;8.112;2022-12-18T19:45:32;15.63;;;9.23;;
30010;SDS011;16851;53.564;8.112;2022-12-18T19:50:42;19.50;;;10.10;;
30010;SDS011;16851;53.564;8.112;2022-12-18T19:55:44;18.23;;;10.00;;
30010;SDS011;16851;53.564;8.112;2022-12-18T20:00:52;18.10;;;9.87;;
30010;SDS011;16851;53.564;8.112;2022-12-18T20:05:54;17.27;;;9.53;;
30010;SDS011;16851;53.564;8.112;2022-12-18T20:10:55;20.37;;;12.47;;
30010;SDS011;16851;53.564;8.112;2022-12-18T20:16:01;17.27;;;10.80;;
30010;SDS011;16851;53.564;8.112;2022-12-18T20:21:06;20.80;;;11.53;;
30010;SDS011;16851;53.564;8.112;2022-12-18T20:26:18;18.67;;;9.70;;
30010;SDS011;16851;53.564;8.112;2022-12-18T20:31:21;26.97;;;12.40;;
30010;SDS011;16851;53.564;8.112;2022-12-18T20:36:25;20.80;;;10.93;;
30010;SDS011;16851;53.564;8.112;2022-12-18T20:41:27;23.60;;;12.03;;
30010;SDS011;16851;53.564;8.112;2022-12-18T20:46:41;20.60;;;11.23;;
30010;SDS011;16851;53.564;8.112;2022-12-18T20:51:48;17.53;;;9.93;;
30010;SDS011;16851;53.564;8.112;2022-12-18T20:56:53;16.23;;;9.13;;
30010;SDS011;16851;53.564;8.112;2022-12-18T21:01:57;16.27;;;9.40;;
30010;SDS011;16851;53.564;8.112;2022-12-18T21:06:59;16.27;;;10.07;;
30010;SDS011;16851;53.564;8.112;2022-12-18T21:12:04;15.97;;;9.33;;
30010;SDS011;16851;53.564;8.112;2022-12-18T21:17:35;17.90;;;10.07;;
30010;SDS011;16851;53.564;8.112;2022-12-18T21:22:45;17.17;;;10.10;;
30010;SDS011;16851;53.564;8.112;2022-12-18T21:27:47;18.52;;;11.88;;
30010;SDS011;16851;53.564;8.112;2022-12-18T21:32:51;18.53;;;9.83;;
30010;SDS011;16851;53.564;8.112;2022-12-18T21:37:56;16.57;;;9.97;;
30010;SDS011;16851;53.564;8.112;2022-12-18T21:43:00;16.67;;;9.13;;
30010;SDS011;16851;53.564;8.112;2022-12-18T21:48:24;16.57;;;9.33;;
30010;SDS011;16851;53.564;8.112;2022-12-18T21:53:26;17.30;;;9.50;;
30010;SDS011;16851;53.564;8.112;2022-12-18T21:58:28;17.27;;;10.10;;
30010;SDS011;16851;53.564;8.112;2022-12-18T22:03:30;15.47;;;9.37;;
30010;SDS011;16851;53.564;8.112;2022-12-18T22:08:32;18.70;;;9.93;;
30010;SDS011;16851;53.564;8.112;2022-12-18T22:13:34;15.43;;;9.50;;
30010;SDS011;16851;53.564;8.112;2022-12-18T22:18:36;17.40;;;9.67;;
30010;SDS011;16851;53.564;8.112;2022-12-18T22:23:40;15.60;;;9.10;;
30010;SDS011;16851;53.564;8.112;2022-12-18T22:28:50;17.13;;;9.63;;
30010;SDS011;16851;53.564;8.112;2022-12-18T22:34:10;15.37;;;9.13;;
30010;SDS011;16851;53.564;8.112;2022-12-18T22:39:19;14.07;;;8.43;;
30010;SDS011;16851;53.564;8.112;2022-12-18T22:44:25;17.10;;;9.47;;
30010;SDS011;16851;53.564;8.112;2022-12-18T22:49:31;12.03;;;7.80;;
30010;SDS011;16851;53.564;8.112;2022-12-18T22:54:35;17.60;;;8.33;;
30010;SDS011;16851;53.564;8.112;2022-12-18T22:59:37;16.03;;;8.87;;
30010;SDS011;16851;53.564;8.112;2022-12-18T23:04:42;15.73;;;8.77;;
30010;SDS011;16851;53.564;8.112;2022-12-18T23:09:48;16.73;;;9.30;;
30010;SDS011;16851;53.564;8.112;2022-12-18T23:14:57;13.83;;;8.50;;
30010;SDS011;16851;53.564;8.112;2022-12-18T23:20:04;17.50;;;9.23;;
30010;SDS011;16851;53.564;8.112;2022-12-18T23:25:09;19.77;;;10.00;;
30010;SDS011;16851;53.564;8.112;2022-12-18T23:30:11;17.47;;;9.57;;
30010;SDS011;16851;53.564;8.112;2022-12-18T23:35:17;15.53;;;8.73;;
30010;SDS011;16851;53.564;8.112;2022-12-18T23:40:18;19.00;;;11.00;;
30010;SDS011;16851;53.564;8.112;2022-12-18T23:45:20;18.40;;;10.63;;
30010;SDS011;16851;53.564;8.112;2022-12-18T23:50:22;22.17;;;11.53;;
30010;SDS011;16851;53.564;8.112;2022-12-18T23:55:30;23.20;;;11.03;;
